Time;durP1;ratioP1;P1;durP2;ratioP2;P2;SDS_P1;SDS_P2;PMS_P1;PMS_P2;Temp;Humidity;BMP_temperature;BMP_pressure;BME280_temperature;BME280_humidity;BME280_pressure;Samples;Min_cycle;Max_cycle;Signal;HPM_P1;HPM_P2
2021/10/04 00:00:53;;;;;;;6.80;2.75;;;;;;;9.96;93.85;100983.00;2066205;28;20050;-66
2021/10/04 00:01:53;;;;;;;5.72;2.60;;;;;;;9.95;94.43;100990.91;2065466;28;20030;-66
2021/10/04 00:02:53;;;;;;;1.60;0.93;;;;;;;9.97;93.75;100995.16;2065827;28;20172;-66
2021/10/04 00:03:54;;;;;;;3.77;2.07;;;;;;;9.97;94.20;100995.16;2066137;28;20037;-66
2021/10/04 00:04:54;;;;;;;5.27;2.57;;;;;;;9.96;93.90;101003.88;2066207;28;20113;-66
2021/10/04 00:05:54;;;;;;;2.70;2.17;;;;;;;9.93;94.35;100998.78;2065463;28;20061;-66
2021/10/04 00:06:56;;;;;;;5.63;3.13;;;;;;;9.87;94.42;101009.44;2065543;28;20435;-66
2021/10/04 00:07:56;;;;;;;3.72;2.58;;;;;;;9.79;94.79;101002.75;2066235;28;20097;-66
2021/10/04 00:08:56;;;;;;;4.10;2.30;;;;;;;9.76;95.14;101002.84;2066110;28;20108;-65
2021/10/04 00:09:57;;;;;;;5.57;2.90;;;;;;;9.75;95.49;101008.97;2065482;28;20034;-66
2021/10/04 00:10:57;;;;;;;3.07;2.77;;;;;;;9.72;95.62;101005.63;2065524;28;20460;-66
2021/10/04 00:11:57;;;;;;;4.00;2.97;;;;;;;9.68;95.49;101007.50;2066053;28;20022;-65
2021/10/04 00:12:58;;;;;;;4.13;1.93;;;;;;;9.65;95.90;101011.06;2066106;28;20284;-67
2021/10/04 00:13:58;;;;;;;3.43;2.03;;;;;;;9.63;96.01;101004.22;2065423;28;20018;-66
2021/10/04 00:14:59;;;;;;;3.60;1.20;;;;;;;9.59;96.21;101010.44;2065690;28;20033;-66
2021/10/04 00:15:59;;;;;;;3.20;1.42;;;;;;;9.59;96.55;101011.28;2066475;28;20046;-66
2021/10/04 00:16:59;;;;;;;7.13;2.37;;;;;;;9.60;96.33;101010.38;2066163;28;20089;-67
2021/10/04 00:18:00;;;;;;;2.73;2.07;;;;;;;9.64;96.63;101013.72;2066016;28;20523;-66
2021/10/04 00:19:00;;;;;;;2.92;1.90;;;;;;;9.62;96.76;101010.34;2066431;28;20062;-66
2021/10/04 00:20:01;;;;;;;2.97;1.80;;;;;;;9.60;96.85;101012.13;2066533;28;20503;-65
2021/10/04 00:21:02;;;;;;;4.00;1.33;;;;;;;9.59;97.11;101020.84;2066433;28;20113;-66
2021/10/04 00:22:03;;;;;;;6.47;2.78;;;;;;;9.57;97.04;101017.44;2066045;28;20042;-66
2021/10/04 00:23:05;;;;;;;8.02;2.38;;;;;;;9.53;97.08;101022.78;2066209;28;20046;-66
2021/10/04 00:24:05;;;;;;;3.47;1.60;;;;;;;9.55;97.45;101029.69;2066313;28;20022;-67
2021/10/04 00:25:07;;;;;;;5.53;3.03;;;;;;;9.53;97.24;101028.00;2065826;28;20034;-67
2021/10/04 00:26:07;;;;;;;4.45;1.88;;;;;;;9.55;97.49;101033.16;2066180;28;20031;-67
2021/10/04 00:27:07;;;;;;;4.87;2.23;;;;;;;9.56;97.25;101039.19;2066169;28;20030;-66
2021/10/04 00:28:08;;;;;;;3.47;1.80;;;;;;;9.56;97.21;101036.59;2066246;28;20030;-67
2021/10/04 00:29:09;;;;;;;4.38;1.75;;;;;;;9.56;96.92;101034.00;2065637;28;20117;-66
2021/10/04 00:30:10;;;;;;;2.47;1.67;;;;;;;9.58;96.83;101037.41;2065527;28;20045;-65
2021/10/04 00:31:10;;;;;;;4.15;2.15;;;;;;;9.56;97.18;101031.38;2065848;28;20459;-66
2021/10/04 00:32:11;;;;;;;2.43;1.40;;;;;;;9.56;97.22;101047.00;2066417;28;20038;-66
2021/10/04 00:33:11;;;;;;;6.57;2.23;;;;;;;9.55;97.46;101032.28;2066318;28;20022;-66
2021/10/04 00:34:11;;;;;;;4.50;2.40;;;;;;;9.58;96.83;101029.59;2065951;28;20097;-67
2021/10/04 00:35:14;;;;;;;2.77;1.47;;;;;;;9.58;97.38;101024.38;2065957;28;20026;-66
2021/10/04 00:36:15;;;;;;;2.22;1.38;;;;;;;9.58;97.20;101032.19;2065003;28;20022;-65
2021/10/04 00:37:15;;;;;;;3.40;1.43;;;;;;;9.57;96.90;101033.06;2065421;28;20037;-66
2021/10/04 00:38:15;;;;;;;2.73;1.20;;;;;;;9.57;97.11;101028.72;2066324;28;20490;-65
2021/10/04 00:39:16;;;;;;;3.53;1.77;;;;;;;9.58;96.75;101030.41;2066261;28;20061;-66
2021/10/04 00:40:23;;;;;;;2.30;1.77;;;;;;;9.63;96.87;101027.66;2065728;28;20476;-67
2021/10/04 00:41:23;;;;;;;1.52;1.38;;;;;;;9.62;96.67;101042.44;2065847;28;20044;-66
2021/10/04 00:42:24;;;;;;;5.03;1.40;;;;;;;9.62;97.21;101037.22;2065852;28;20423;-68
2021/10/04 00:43:24;;;;;;;2.88;1.48;;;;;;;9.63;96.73;101032.88;2066104;28;20387;-65
2021/10/04 00:44:25;;;;;;;5.47;1.40;;;;;;;9.67;96.73;101042.28;2066263;28;20026;-66
2021/10/04 00:45:28;;;;;;;2.88;1.65;;;;;;;9.69;96.52;101042.22;2065557;28;20553;-65
2021/10/04 00:46:28;;;;;;;4.18;1.40;;;;;;;9.74;96.07;101037.69;2065383;28;20101;-65
2021/10/04 00:47:31;;;;;;;3.22;1.30;;;;;;;9.75;96.38;101045.47;2066285;28;20025;-67
2021/10/04 00:48:31;;;;;;;2.25;1.45;;;;;;;9.78;95.94;101047.97;2065342;28;20029;-66
2021/10/04 00:49:31;;;;;;;5.90;1.70;;;;;;;9.79;95.67;101043.63;2057045;28;20419;-67
2021/10/04 00:50:32;;;;;;;1.60;1.50;;;;;;;9.78;95.89;101042.75;2065260;28;20484;-65
2021/10/04 00:51:32;;;;;;;4.20;1.30;;;;;;;9.79;95.73;101043.63;2066179;28;20022;-66
2021/10/04 00:52:33;;;;;;;5.77;2.67;;;;;;;9.77;95.32;101035.84;2065951;28;20034;-66
2021/10/04 00:53:33;;;;;;;5.40;2.40;;;;;;;9.74;95.99;101035.94;2065664;28;20113;-66
2021/10/04 00:54:33;;;;;;;5.43;1.87;;;;;;;9.74;95.55;101051.59;2065837;28;20022;-66
2021/10/04 00:55:34;;;;;;;5.43;2.20;;;;;;;9.74;95.87;101046.38;2065566;28;20480;-66
2021/10/04 00:56:34;;;;;;;2.47;2.23;;;;;;;9.75;95.45;101042.84;2065162;28;20032;-64
2021/10/04 00:57:39;;;;;;;2.35;1.55;;;;;;;9.74;95.57;101045.50;2065209;28;20027;-65
2021/10/04 00:58:39;;;;;;;1.40;1.30;;;;;;;9.74;95.84;101046.38;2065839;28;20030;-65
2021/10/04 00:59:40;;;;;;;6.47;2.30;;;;;;;9.72;95.74;101048.16;2065498;28;20464;-65
2021/10/04 01:00:40;;;;;;;2.57;2.37;;;;;;;9.72;95.97;101056.00;2065703;28;20293;-66
2021/10/04 01:01:41;;;;;;;3.90;1.63;;;;;;;9.72;95.62;101057.75;2065757;28;20547;-66
2021/10/04 01:02:41;;;;;;;4.40;2.30;;;;;;;9.72;96.26;101061.19;2065716;28;20109;-65
2021/10/04 01:03:41;;;;;;;6.93;2.93;;;;;;;9.72;96.07;101062.97;2065618;28;20026;-65
2021/10/04 01:04:44;;;;;;;4.50;3.03;;;;;;;9.70;95.90;101065.63;2065575;28;20502;-68
2021/10/04 01:05:44;;;;;;;4.15;2.42;;;;;;;9.70;96.11;101070.84;2065553;28;20522;-67
2021/10/04 01:06:45;;;;;;;3.50;1.40;;;;;;;9.73;96.16;101060.31;2065673;28;20041;-66
2021/10/04 01:07:45;;;;;;;8.33;2.10;;;;;;;9.73;96.01;101065.53;2065730;28;20030;-65
2021/10/04 01:08:45;;;;;;;2.60;1.05;;;;;;;9.72;95.61;101062.97;2065116;28;20121;-67
2021/10/04 01:09:46;;;;;;;2.73;0.93;;;;;;;9.74;96.08;101055.94;2065296;28;20068;-66
2021/10/04 01:10:46;;;;;;;4.03;2.93;;;;;;;9.75;95.66;101053.28;2065532;28;20030;-66
2021/10/04 01:11:47;;;;;;;3.03;2.40;;;;;;;9.76;95.72;101047.16;2065580;28;20026;-65
2021/10/04 01:12:49;;;;;;;5.57;3.13;;;;;;;9.75;95.75;101045.47;2064969;28;20034;-65
2021/10/04 01:13:50;;;;;;;2.90;2.65;;;;;;;9.73;95.80;101047.28;2064974;28;20077;-65
2021/10/04 01:14:50;;;;;;;3.90;2.42;;;;;;;9.73;95.63;101054.25;2064903;28;20022;-66
2021/10/04 01:15:50;;;;;;;5.70;3.00;;;;;;;9.72;95.43;101053.38;2064992;28;20121;-65
2021/10/04 01:16:51;;;;;;;3.57;2.80;;;;;;;9.73;95.58;101055.09;2065598;28;20129;-66
2021/10/04 01:17:52;;;;;;;3.03;2.70;;;;;;;9.76;95.52;101052.38;2065660;28;20037;-66
2021/10/04 01:18:52;;;;;;;6.43;3.60;;;;;;;9.75;95.33;101048.06;2065721;28;20400;-67
2021/10/04 01:19:52;;;;;;;4.73;3.30;;;;;;;9.79;95.24;101059.25;2065695;28;20018;-67
2021/10/04 01:20:53;;;;;;;5.83;3.03;;;;;;;9.75;95.66;101063.69;2065718;28;20054;-66
2021/10/04 01:21:53;;;;;;;5.40;3.20;;;;;;;9.74;95.55;101061.16;2065880;28;20054;-65
2021/10/04 01:22:55;;;;;;;5.67;3.30;;;;;;;9.74;95.36;101067.22;2065678;28;20030;-65
2021/10/04 01:23:55;;;;;;;6.30;4.18;;;;;;;9.74;95.72;101067.22;2065738;28;20069;-66
2021/10/04 01:24:56;;;;;;;6.13;3.25;;;;;;;9.76;95.63;101062.78;2065550;28;20022;-65
2021/10/04 01:25:57;;;;;;;5.17;3.10;;;;;;;9.74;95.61;101059.41;2065371;28;20034;-65
2021/10/04 01:26:58;;;;;;;5.45;2.38;;;;;;;9.74;95.90;101055.94;2065460;28;20468;-66
2021/10/04 01:27:58;;;;;;;4.07;2.50;;;;;;;9.78;95.17;101063.59;2065507;28;20030;-64
2021/10/04 01:28:59;;;;;;;4.60;3.67;;;;;;;9.79;95.37;101064.47;2065661;28;20101;-65
2021/10/04 01:29:59;;;;;;;6.40;3.30;;;;;;;9.77;94.97;101063.66;2065732;28;20018;-66
2021/10/04 01:30:59;;;;;;;6.45;2.47;;;;;;;9.78;95.23;101067.94;2064796;28;20581;-66
2021/10/04 01:32:00;;;;;;;3.30;2.17;;;;;;;9.72;95.10;101068.19;2064895;28;20025;-65
2021/10/04 01:33:01;;;;;;;4.73;4.33;;;;;;;9.72;95.80;101068.19;2064840;28;20018;-66
2021/10/04 01:34:04;;;;;;;3.63;2.15;;;;;;;9.69;95.24;101063.94;2064910;28;20030;-65
2021/10/04 01:35:04;;;;;;;4.43;3.58;;;;;;;9.71;95.70;101062.13;2065582;28;20058;-65
2021/10/04 01:36:05;;;;;;;3.83;2.80;;;;;;;9.70;95.15;101065.63;2065505;28;20380;-66
2021/10/04 01:37:05;;;;;;;7.17;2.87;;;;;;;9.68;95.40;101067.44;2065493;28;20034;-65
2021/10/04 01:38:05;;;;;;;3.40;2.60;;;;;;;9.66;95.74;101069.25;2065583;28;20041;-65
2021/10/04 01:39:06;;;;;;;3.93;3.63;;;;;;;9.66;95.42;101058.81;2065823;28;20022;-66
2021/10/04 01:40:09;;;;;;;5.03;3.00;;;;;;;9.63;96.07;101056.31;2065715;28;20062;-65
2021/10/04 01:41:09;;;;;;;5.53;2.45;;;;;;;9.61;95.93;101055.53;2064880;28;20081;-66
2021/10/04 01:42:10;;;;;;;5.97;1.90;;;;;;;9.59;96.34;101062.53;2065029;28;20491;-65
2021/10/04 01:43:11;;;;;;;3.57;2.30;;;;;;;9.58;95.92;101053.88;2065535;28;20022;-65
2021/10/04 01:44:11;;;;;;;4.15;2.45;;;;;;;9.57;96.37;101053.91;2065485;28;20022;-66
2021/10/04 01:45:16;;;;;;;3.80;3.03;;;;;;;9.61;96.47;101056.38;2065696;28;20542;-65
2021/10/04 01:46:16;;;;;;;4.43;2.97;;;;;;;9.63;96.12;101053.72;2065529;28;20061;-67
2021/10/04 01:47:16;;;;;;;4.83;3.30;;;;;;;9.64;95.75;101056.28;2065584;28;20037;-67
2021/10/04 01:48:17;;;;;;;6.20;2.90;;;;;;;9.64;96.24;101058.00;2064966;28;20018;-66
2021/10/04 01:49:17;;;;;;;5.33;2.90;;;;;;;9.62;95.90;101058.06;2065404;28;20025;-66
2021/10/04 01:50:18;;;;;;;7.33;3.33;;;;;;;9.60;96.22;101053.81;2065549;28;20022;-66
2021/10/04 01:51:19;;;;;;;3.63;3.00;;;;;;;9.58;96.35;101056.47;2065683;28;20022;-66
2021/10/04 01:52:19;;;;;;;4.50;2.60;;;;;;;9.59;96.00;101057.34;2065777;28;20430;-66
2021/10/04 01:53:19;;;;;;;3.67;3.37;;;;;;;9.58;96.17;101050.44;2065789;28;20109;-65
2021/10/04 01:54:20;;;;;;;2.70;2.50;;;;;;;9.56;96.29;101052.22;2065182;28;20191;-66
2021/10/04 01:55:20;;;;;;;5.33;3.13;;;;;;;9.61;96.59;101055.53;2056929;28;20030;-65
2021/10/04 01:56:20;;;;;;;4.20;3.00;;;;;;;9.60;95.72;101057.28;2065133;28;20368;-66
2021/10/04 01:57:21;;;;;;;3.23;2.83;;;;;;;9.62;96.33;101057.25;2065663;28;20029;-66
2021/10/04 01:58:22;;;;;;;2.47;2.20;;;;;;;9.60;95.86;101054.69;2065118;28;20108;-65
2021/10/04 01:59:22;;;;;;;5.95;2.75;;;;;;;9.59;95.64;101053.00;2065022;28;20435;-67
2021/10/04 02:00:22;;;;;;;6.43;2.73;;;;;;;9.59;96.13;101057.34;2065132;28;20038;-66
2021/10/04 02:01:23;;;;;;;2.60;2.37;;;;;;;9.57;96.51;101053.91;2065134;28;20062;-65
2021/10/04 02:02:23;;;;;;;7.23;3.40;;;;;;;9.56;96.43;101050.47;2065633;28;20030;-65
2021/10/04 02:03:23;;;;;;;3.70;2.70;;;;;;;9.58;96.14;101055.66;2065632;28;20116;-68
2021/10/04 02:04:24;;;;;;;4.90;2.57;;;;;;;9.58;96.08;101053.03;2065700;28;20018;-65
2021/10/04 02:05:25;;;;;;;2.90;2.60;;;;;;;9.61;96.04;101056.38;2065529;28;20025;-65
2021/10/04 02:06:26;;;;;;;3.38;3.00;;;;;;;9.64;95.87;101058.88;2065590;28;20041;-65
2021/10/04 02:07:26;;;;;;;7.47;3.00;;;;;;;9.63;95.44;101056.31;2065639;28;20041;-65
2021/10/04 02:08:26;;;;;;;6.33;3.60;;;;;;;9.61;95.64;101051.16;2064981;28;20519;-65
2021/10/04 02:09:27;;;;;;;2.93;2.63;;;;;;;9.62;95.91;101059.84;2065147;28;20045;-66
2021/10/04 02:10:31;;;;;;;8.70;4.30;;;;;;;9.61;95.46;101058.16;2065489;28;20109;-66
2021/10/04 02:11:31;;;;;;;3.00;2.60;;;;;;;9.59;95.87;101057.34;2064757;28;20046;-65
2021/10/04 02:12:32;;;;;;;3.43;2.20;;;;;;;9.61;95.85;101060.75;2064757;28;20057;-65
2021/10/04 02:13:32;;;;;;;6.22;2.63;;;;;;;9.59;96.19;101059.94;2065026;28;20105;-66
2021/10/04 02:14:33;;;;;;;2.47;2.10;;;;;;;9.61;95.65;101055.53;2065620;28;20022;-66
2021/10/04 02:15:35;;;;;;;5.13;2.20;;;;;;;9.62;95.59;101059.84;2065462;28;20027;-66
2021/10/04 02:16:36;;;;;;;2.75;2.13;;;;;;;9.60;95.50;101064.25;2065575;28;20014;-66
2021/10/04 02:17:37;;;;;;;2.20;1.90;;;;;;;9.59;95.48;101065.16;2065530;28;20186;-66
2021/10/04 02:18:37;;;;;;;;;;;;;;;9.59;95.57;101062.53;2066070;28;20092;-65
2021/10/04 02:19:38;;;;;;;1.70;1.55;;;;;;;9.57;95.51;101059.13;2065367;28;19909;-66
2021/10/04 02:20:41;;;;;;;4.70;1.83;;;;;;;9.57;95.76;101061.75;2064665;28;20033;-66
2021/10/04 02:21:44;;;;;;;6.22;2.13;;;;;;;9.52;95.85;101054.94;2064639;28;20783;-65
2021/10/04 02:22:45;;;;;;;3.45;1.90;;;;;;;9.50;96.18;101061.97;2064665;28;20525;-66
2021/10/04 02:23:45;;;;;;;3.75;1.70;;;;;;;9.52;95.83;101062.75;2064602;28;20491;-67
2021/10/04 02:24:45;;;;;;;3.40;2.87;;;;;;;9.53;96.21;101059.25;2065301;28;20022;-68
2021/10/04 02:25:48;;;;;;;2.90;2.60;;;;;;;9.51;96.13;101060.19;2065474;28;20018;-67
2021/10/04 02:26:48;;;;;;;4.28;2.72;;;;;;;9.50;96.50;101064.56;2065187;28;20058;-64
2021/10/04 02:27:49;;;;;;;3.07;2.87;;;;;;;9.50;95.84;101063.72;2065521;28;20019;-66
2021/10/04 02:28:50;;;;;;;5.20;3.33;;;;;;;9.47;96.54;101059.47;2065423;28;20076;-65
2021/10/04 02:29:51;;;;;;;3.63;2.55;;;;;;;9.44;96.38;101054.34;2065260;28;20022;-66
2021/10/04 02:30:52;;;;;;;7.43;2.33;;;;;;;9.45;96.27;101052.59;2065140;28;20042;-66
2021/10/04 02:31:53;;;;;;;5.65;2.70;;;;;;;9.46;96.14;101041.28;2065157;28;20034;-66
2021/10/04 02:32:53;;;;;;;4.83;2.33;;;;;;;9.48;96.19;101055.13;2065178;28;20026;-68
2021/10/04 02:33:53;;;;;;;3.50;2.10;;;;;;;9.47;96.24;101054.25;2065183;28;20087;-67
2021/10/04 02:34:54;;;;;;;4.43;3.23;;;;;;;9.44;96.71;101049.13;2065343;28;20033;-66
2021/10/04 02:35:54;;;;;;;5.33;3.00;;;;;;;9.40;96.52;101058.81;2065294;28;20031;-66
2021/10/04 02:36:54;;;;;;;2.77;1.43;;;;;;;9.39;96.43;101045.84;2065235;28;20438;-65
2021/10/04 02:37:55;;;;;;;4.55;1.40;;;;;;;9.46;96.36;101049.94;2065291;28;20037;-65
2021/10/04 02:38:56;;;;;;;3.80;2.40;;;;;;;9.48;96.56;101053.34;2065095;28;20164;-65
2021/10/04 02:39:56;;;;;;;3.50;1.90;;;;;;;9.49;96.18;101054.19;2064973;28;20034;-68
2021/10/04 02:40:56;;;;;;;4.97;2.03;;;;;;;9.47;95.94;101056.84;2065138;28;20499;-66
2021/10/04 02:41:56;;;;;;;3.53;2.30;;;;;;;9.49;96.10;101068.09;2065235;28;20550;-66
2021/10/04 02:42:57;;;;;;;4.13;2.90;;;;;;;9.50;96.10;101069.78;2064669;28;20411;-67
2021/10/04 02:43:58;;;;;;;7.05;2.53;;;;;;;9.48;95.85;101060.31;2064334;28;20419;-67
2021/10/04 02:44:59;;;;;;;4.27;2.43;;;;;;;9.48;95.86;101058.53;2065092;28;20030;-65
2021/10/04 02:45:59;;;;;;;5.30;2.13;;;;;;;9.49;96.35;101060.28;2065086;28;20491;-66
2021/10/04 02:47:00;;;;;;;4.27;3.37;;;;;;;9.47;96.37;101059.47;2064414;28;20131;-66
2021/10/04 02:48:02;;;;;;;3.90;3.30;;;;;;;9.49;95.98;101057.66;2064659;28;20062;-65
2021/10/04 02:49:02;;;;;;;3.05;2.75;;;;;;;9.52;95.90;101057.53;2065015;28;20034;-66
2021/10/04 02:50:06;;;;;;;2.47;1.60;;;;;;;9.49;96.34;101055.06;2064431;28;20050;-66
2021/10/04 02:51:07;;;;;;;4.65;2.47;;;;;;;9.46;96.15;101051.69;2064335;28;20037;-66
2021/10/04 02:52:09;;;;;;;2.88;2.00;;;;;;;9.47;95.97;101059.47;2065148;28;20037;-68
2021/10/04 02:53:10;;;;;;;6.88;1.63;;;;;;;9.48;95.59;101055.94;2065094;28;20035;-65
2021/10/04 02:54:10;;;;;;;3.57;1.23;;;;;;;9.49;95.87;101057.66;2065392;28;20038;-65
2021/10/04 02:55:10;;;;;;;3.43;1.43;;;;;;;9.50;95.77;101064.56;2064738;28;20050;-65
2021/10/04 02:56:11;;;;;;;1.80;1.63;;;;;;;9.52;96.00;101061.91;2064503;28;20125;-66
2021/10/04 02:57:11;;;;;;;3.60;3.20;;;;;;;9.53;95.53;101055.78;2065330;28;20026;-65
2021/10/04 02:58:11;;;;;;;4.85;2.83;;;;;;;9.56;95.32;101055.69;2065250;28;20034;-64
2021/10/04 02:59:14;;;;;;;4.27;2.97;;;;;;;9.59;95.44;101049.53;2065030;28;20029;-65
2021/10/04 03:00:16;;;;;;;3.90;2.13;;;;;;;9.58;95.82;101060.84;2066396;28;20049;-66
2021/10/04 03:01:17;;;;;;;2.25;2.05;;;;;;;9.55;95.74;101061.81;2066647;28;20594;-66
2021/10/04 03:02:17;;;;;;;5.80;3.27;;;;;;;9.55;95.61;101067.03;2066758;28;20129;-67
2021/10/04 03:03:17;;;;;;;4.87;3.00;;;;;;;9.58;95.44;101071.28;2066628;28;20022;-67
2021/10/04 03:04:18;;;;;;;5.90;3.10;;;;;;;9.63;95.60;101069.34;2066843;28;20057;-66
2021/10/04 03:05:18;;;;;;;7.83;5.20;;;;;;;9.63;95.33;101067.59;2066188;28;20023;-67
2021/10/04 03:06:18;;;;;;;4.33;2.60;;;;;;;9.62;95.08;101070.25;2066110;28;20029;-66
2021/10/04 03:07:19;;;;;;;2.63;2.43;;;;;;;9.59;95.74;101070.38;2066603;28;20057;-67
2021/10/04 03:08:19;;;;;;;3.30;3.03;;;;;;;9.60;95.36;101069.44;2066799;28;20069;-66
2021/10/04 03:09:19;;;;;;;4.80;3.50;;;;;;;9.62;94.94;101071.09;2066152;28;20033;-66
2021/10/04 03:10:20;;;;;;;3.37;3.17;;;;;;;9.64;95.00;101076.25;2066059;28;20026;-65
2021/10/04 03:11:20;;;;;;;2.80;2.57;;;;;;;9.63;95.23;101077.16;2066580;28;20021;-66
2021/10/04 03:12:21;;;;;;;4.25;3.05;;;;;;;9.63;94.80;101085.84;2066769;28;20014;-65
2021/10/04 03:13:21;;;;;;;3.33;2.17;;;;;;;9.68;94.62;101093.47;2066578;28;20109;-67
2021/10/04 03:14:21;;;;;;;3.97;3.67;;;;;;;9.71;94.69;101098.59;2066833;28;20030;-66
2021/10/04 03:15:22;;;;;;;3.47;1.88;;;;;;;9.72;94.61;101095.09;2066450;28;20030;-64
2021/10/04 03:16:22;;;;;;;4.43;2.73;;;;;;;9.72;94.46;101100.28;2066619;28;20030;-65
2021/10/04 03:17:22;;;;;;;3.53;3.23;;;;;;;9.72;94.89;101091.66;2066624;28;20026;-65
2021/10/04 03:18:23;;;;;;;3.43;2.63;;;;;;;9.72;94.70;101089.03;2065753;28;20030;-65
2021/10/04 03:19:23;;;;;;;4.07;2.67;;;;;;;9.73;94.36;101085.53;2065943;28;20018;-66
2021/10/04 03:20:24;;;;;;;2.75;2.50;;;;;;;9.71;94.41;101088.19;2066434;28;20033;-66
2021/10/04 03:21:24;;;;;;;3.73;1.60;;;;;;;9.70;94.62;101081.28;2065829;28;20024;-67
2021/10/04 03:22:24;;;;;;;2.40;1.53;;;;;;;9.68;94.64;101072.63;2065869;28;20022;-66
2021/10/04 03:23:24;;;;;;;6.97;1.90;;;;;;;9.71;94.59;101077.75;2066470;28;20042;-65
2021/10/04 03:24:25;;;;;;;3.03;2.30;;;;;;;9.71;94.58;101080.34;2066328;28;20050;-66
2021/10/04 03:25:26;;;;;;;2.35;1.88;;;;;;;9.69;94.52;101087.41;2066498;28;20064;-65
2021/10/04 03:26:26;;;;;;;6.67;2.80;;;;;;;9.69;94.40;101094.34;2066478;28;20034;-65
2021/10/04 03:27:26;;;;;;;3.08;2.67;;;;;;;9.69;94.86;101095.22;2066218;28;20019;-66
2021/10/04 03:28:27;;;;;;;3.60;3.10;;;;;;;9.69;94.88;101095.22;2066561;28;20021;-66
2021/10/04 03:29:27;;;;;;;3.30;1.90;;;;;;;9.65;95.13;101089.22;2065840;28;20025;-67
2021/10/04 03:30:27;;;;;;;1.50;1.10;;;;;;;9.67;94.34;101091.78;2065844;28;20445;-67
2021/10/04 03:31:28;;;;;;;4.20;1.43;;;;;;;9.69;94.85;101094.34;2066561;28;20035;-68
2021/10/04 03:32:28;;;;;;;6.40;3.00;;;;;;;9.70;94.79;101091.69;2066395;28;20049;-67
2021/10/04 03:33:28;;;;;;;5.53;2.90;;;;;;;9.70;94.74;101086.47;2066357;28;20531;-67
2021/10/04 03:34:28;;;;;;;4.50;2.90;;;;;;;9.72;94.48;101089.88;2066641;28;20533;-65
2021/10/04 03:35:29;;;;;;;4.63;3.00;;;;;;;9.77;94.28;101093.19;2066266;28;20027;-67
2021/10/04 03:36:29;;;;;;;3.47;2.83;;;;;;;9.76;94.40;101098.44;2065774;28;20117;-66
2021/10/04 03:37:30;;;;;;;4.80;2.33;;;;;;;9.75;93.99;101094.97;2057532;28;20038;-67
2021/10/04 03:38:30;;;;;;;3.40;2.53;;;;;;;9.72;94.59;101102.06;2065633;28;20813;-65
2021/10/04 03:39:30;;;;;;;3.33;3.03;;;;;;;9.76;94.49;101106.28;2066247;28;20468;-66
2021/10/04 03:40:31;;;;;;;4.27;3.57;;;;;;;9.74;94.25;101110.66;2066594;28;20022;-66
2021/10/04 03:41:32;;;;;;;2.60;2.33;;;;;;;9.74;94.41;101119.34;2066243;28;20056;-67
2021/10/04 03:42:33;;;;;;;2.90;2.60;;;;;;;9.79;94.23;101121.81;2066353;28;20029;-65
2021/10/04 03:43:33;;;;;;;5.80;2.80;;;;;;;9.81;94.01;101117.38;2066458;28;20129;-67
2021/10/04 03:44:33;;;;;;;3.10;2.80;;;;;;;9.82;93.54;101123.44;2066399;28;20022;-66
2021/10/04 03:45:34;;;;;;;9.60;3.87;;;;;;;9.81;94.01;101124.38;2066691;28;20018;-67
2021/10/04 03:46:35;;;;;;;5.23;3.13;;;;;;;9.84;93.43;101117.28;2066407;28;20022;-67
2021/10/04 03:47:35;;;;;;;6.47;3.35;;;;;;;9.86;93.32;101117.22;2066428;28;20431;-66
2021/10/04 03:48:36;;;;;;;7.53;2.83;;;;;;;9.88;93.42;101115.41;2065532;28;20030;-66
2021/10/04 03:49:36;;;;;;;3.03;2.73;;;;;;;9.86;93.74;101115.44;2065674;28;20112;-67
2021/10/04 03:50:36;;;;;;;2.23;1.30;;;;;;;9.84;93.14;101116.41;2066486;28;20392;-65
2021/10/04 03:51:36;;;;;;;3.43;2.97;;;;;;;9.85;93.63;101121.56;2066388;28;20023;-67
2021/10/04 03:52:38;;;;;;;3.37;1.40;;;;;;;9.85;93.44;101118.97;2066269;28;20027;-65
2021/10/04 03:53:39;;;;;;;2.65;2.00;;;;;;;9.85;93.21;101115.53;2066214;28;20030;-67
2021/10/04 03:54:39;;;;;;;3.40;1.57;;;;;;;9.83;93.52;101112.97;2066469;28;20015;-67
2021/10/04 03:55:39;;;;;;;6.50;1.27;;;;;;;9.86;93.54;101114.63;2066515;28;20109;-66
2021/10/04 03:56:40;;;;;;;2.00;1.30;;;;;;;9.85;93.34;101115.53;2065698;28;20066;-65
2021/10/04 03:57:42;;;;;;;2.63;1.63;;;;;;;9.86;93.19;101123.25;2065636;28;20049;-66
2021/10/04 03:58:43;;;;;;;5.88;1.40;;;;;;;9.85;93.42;101121.56;2066308;28;20026;-66
2021/10/04 03:59:43;;;;;;;2.80;0.93;;;;;;;9.84;93.43;101119.00;2066363;28;20076;-65
2021/10/04 04:00:43;;;;;;;3.70;1.43;;;;;;;9.83;93.66;101125.16;2066222;28;20022;-70
2021/10/04 04:01:43;;;;;;;1.93;1.20;;;;;;;9.83;93.24;101118.19;2066314;28;20156;-66
2021/10/04 04:02:44;;;;;;;4.07;1.27;;;;;;;9.84;93.90;101119.00;2066426;28;20053;-66
2021/10/04 04:03:44;;;;;;;4.05;1.83;;;;;;;9.87;93.51;101118.91;2066000;28;20034;-65
2021/10/04 04:04:45;;;;;;;5.10;2.80;;;;;;;9.86;93.25;101112.00;2066056;28;20049;-65
2021/10/04 04:05:45;;;;;;;3.07;2.83;;;;;;;9.90;93.28;101116.22;2066029;28;20708;-68
2021/10/04 04:06:45;;;;;;;4.23;3.40;;;;;;;9.90;92.94;101118.81;2066269;28;20069;-66
2021/10/04 04:07:46;;;;;;;2.73;2.33;;;;;;;9.92;93.28;101122.19;2066064;28;20045;-68
2021/10/04 04:08:47;;;;;;;4.10;2.47;;;;;;;9.94;93.46;101124.75;2066077;28;20022;-68
2021/10/04 04:09:47;;;;;;;6.47;2.13;;;;;;;9.93;92.77;101134.34;2066149;28;20022;-67
2021/10/04 04:10:47;;;;;;;2.03;1.77;;;;;;;9.94;92.93;101143.00;2066075;28;20156;-65
2021/10/04 04:11:47;;;;;;;4.90;1.10;;;;;;;9.92;92.70;101135.25;2064693;28;20030;-66
2021/10/04 04:12:48;;;;;;;3.17;1.83;;;;;;;9.95;92.84;101139.53;2065507;28;20026;-67
2021/10/04 04:13:48;;;;;;;8.03;3.20;;;;;;;9.93;92.58;101142.19;2066254;28;20022;-67
2021/10/04 04:14:48;;;;;;;5.30;3.03;;;;;;;9.94;93.45;101148.22;2065515;28;20096;-66
2021/10/04 04:15:49;;;;;;;3.90;2.97;;;;;;;9.95;93.12;101148.16;2065816;28;20153;-66
2021/10/04 04:16:49;;;;;;;4.20;3.00;;;;;;;9.93;93.00;101139.56;2066134;28;20109;-67
2021/10/04 04:17:49;;;;;;;6.03;2.87;;;;;;;9.90;92.93;101139.66;2065723;28;20048;-66
2021/10/04 04:18:49;;;;;;;6.60;2.97;;;;;;;9.88;93.31;101141.47;2057432;28;20027;-68
2021/10/04 04:19:50;;;;;;;3.13;1.83;;;;;;;9.86;93.59;101140.69;2065397;28;20074;-67
2021/10/04 04:20:50;;;;;;;3.33;3.13;;;;;;;9.85;93.47;101139.81;2066189;28;20031;-68
2021/10/04 04:21:50;;;;;;;4.87;3.03;;;;;;;9.87;93.00;101134.56;2066472;28;20365;-66
2021/10/04 04:22:51;;;;;;;5.77;3.20;;;;;;;9.91;93.26;101144.84;2066351;28;20101;-66
2021/10/04 04:23:51;;;;;;;6.73;2.70;;;;;;;9.93;93.39;101142.19;2066471;28;20034;-66
2021/10/04 04:24:51;;;;;;;4.20;3.27;;;;;;;9.94;93.29;101141.25;2066390;28;20484;-66
2021/10/04 04:25:51;;;;;;;5.00;2.90;;;;;;;9.95;92.92;101136.91;2066239;28;20061;-66
2021/10/04 04:26:53;;;;;;;3.03;2.83;;;;;;;9.95;92.68;101132.53;2066287;28;20026;-66
2021/10/04 04:27:58;;;;;;;;;;;;;;;9.94;93.26;101130.84;2066970;28;20030;-67
2021/10/04 04:28:58;;;;;;;3.95;1.98;;;;;;;9.92;93.32;101137.84;2066057;28;19910;-65
2021/10/04 04:30:01;;;;;;;4.10;2.30;;;;;;;9.92;92.83;101132.63;2065534;28;20436;-65
2021/10/04 04:31:01;;;;;;;3.40;3.15;;;;;;;9.94;92.93;101130.84;2065667;28;20455;-65
2021/10/04 04:32:04;;;;;;;7.18;3.15;;;;;;;9.94;92.55;101130.84;2066275;28;20037;-66
2021/10/04 04:33:04;;;;;;;3.35;2.47;;;;;;;9.95;93.00;101132.53;2066352;28;20022;-65
2021/10/04 04:34:04;;;;;;;4.80;3.10;;;;;;;9.98;92.74;101142.00;2065599;28;20042;-66
2021/10/04 04:35:06;;;;;;;6.70;3.00;;;;;;;9.96;92.81;101143.81;2057574;28;20030;-65
2021/10/04 04:36:06;;;;;;;3.13;2.92;;;;;;;9.94;93.09;101146.47;2065726;28;20033;-65
2021/10/04 04:37:06;;;;;;;2.87;2.67;;;;;;;9.90;92.95;101144.88;2066204;28;20015;-66
2021/10/04 04:38:07;;;;;;;2.90;2.60;;;;;;;9.91;92.61;101141.38;2066079;28;20018;-66
2021/10/04 04:39:07;;;;;;;3.33;3.03;;;;;;;9.92;92.94;101137.84;2066228;28;20387;-66
2021/10/04 04:40:14;;;;;;;2.85;2.65;;;;;;;9.96;92.37;101139.44;2066319;28;20030;-68
2021/10/04 04:41:14;;;;;;;3.22;2.80;;;;;;;9.95;91.90;101153.38;2065421;28;20026;-67
2021/10/04 04:42:14;;;;;;;4.93;2.90;;;;;;;9.94;92.56;101162.13;2065556;28;20054;-66
2021/10/04 04:43:15;;;;;;;8.23;3.00;;;;;;;9.92;92.56;101158.69;2066203;28;20022;-66
2021/10/04 04:44:15;;;;;;;4.87;2.87;;;;;;;9.93;92.74;101160.44;2066140;28;20026;-66
2021/10/04 04:45:18;;;;;;;4.37;1.87;;;;;;;9.92;93.05;101163.91;2066020;28;20033;-65
2021/10/04 04:46:18;;;;;;;3.20;2.90;;;;;;;9.92;92.67;101171.75;2065444;28;20026;-66